Terminal Aerodrome Forecast
Issued by NWS Portland, ME

Home | Current Version | Previous Version | Text Only | Print | Product List | Glossary On
Versions: 1 2 3 4 5 6 7 8 9 10 11 12 13 14 15 16 17 18
000
FTUS41 KGYX 202320
TAFPWM
TAF
KPWM 202320Z 2100/2124 21003KT P6SM BKN250
     FM210400 VRB03KT P6SM OVC100
     FM211000 04005KT P6SM OVC050
     FM211500 08007KT P6SM -RA OVC025
     FM211800 08008KT 4SM -RA BR OVC010=

USA.gov is the U.S. government's official web portal to all federal, state and local government web resources and services.